sensor_id;sensor_type;location;lat;lon;timestamp;P1;durP1;ratioP1;P2;durP2;ratioP2
27833;SDS011;15200;50.570;7.244;2022-10-16T00:01:15;7.62;;;2.87;;
27833;SDS011;15200;50.570;7.244;2022-10-16T00:03:43;5.92;;;3.17;;
27833;SDS011;15200;50.570;7.244;2022-10-16T00:06:11;4.47;;;3.05;;
27833;SDS011;15200;50.570;7.244;2022-10-16T00:08:39;10.00;;;2.90;;
27833;SDS011;15200;50.570;7.244;2022-10-16T00:11:07;8.20;;;3.05;;
27833;SDS011;15200;50.570;7.244;2022-10-16T00:13:35;10.10;;;2.80;;
27833;SDS011;15200;50.570;7.244;2022-10-16T00:16:03;4.12;;;2.02;;
27833;SDS011;15200;50.570;7.244;2022-10-16T00:18:30;3.47;;;2.33;;
27833;SDS011;15200;50.570;7.244;2022-10-16T00:21:02;11.20;;;2.67;;
27833;SDS011;15200;50.570;7.244;2022-10-16T00:23:27;3.10;;;2.42;;
27833;SDS011;15200;50.570;7.244;2022-10-16T00:25:57;2.92;;;2.22;;
27833;SDS011;15200;50.570;7.244;2022-10-16T00:28:25;4.33;;;2.52;;
27833;SDS011;15200;50.570;7.244;2022-10-16T00:30:52;7.30;;;2.75;;
27833;SDS011;15200;50.570;7.244;2022-10-16T00:33:20;5.28;;;2.52;;
27833;SDS011;15200;50.570;7.244;2022-10-16T00:35:47;4.97;;;2.70;;
27833;SDS011;15200;50.570;7.244;2022-10-16T00:38:15;4.80;;;2.58;;
27833;SDS011;15200;50.570;7.244;2022-10-16T00:40:42;4.10;;;2.52;;
27833;SDS011;15200;50.570;7.244;2022-10-16T00:43:13;4.47;;;2.37;;
27833;SDS011;15200;50.570;7.244;2022-10-16T00:45:41;8.45;;;2.50;;
27833;SDS011;15200;50.570;7.244;2022-10-16T00:48:10;4.55;;;2.45;;
27833;SDS011;15200;50.570;7.244;2022-10-16T00:50:37;6.35;;;2.65;;
27833;SDS011;15200;50.570;7.244;2022-10-16T00:53:06;14.50;;;2.72;;
27833;SDS011;15200;50.570;7.244;2022-10-16T00:55:33;4.03;;;2.80;;
27833;SDS011;15200;50.570;7.244;2022-10-16T00:58:01;4.45;;;2.70;;
27833;SDS011;15200;50.570;7.244;2022-10-16T01:00:28;7.28;;;2.42;;
27833;SDS011;15200;50.570;7.244;2022-10-16T01:02:57;4.42;;;2.47;;
27833;SDS011;15200;50.570;7.244;2022-10-16T01:05:30;5.33;;;2.80;;
27833;SDS011;15200;50.570;7.244;2022-10-16T01:07:56;9.08;;;2.30;;
27833;SDS011;15200;50.570;7.244;2022-10-16T01:10:35;6.78;;;2.60;;
27833;SDS011;15200;50.570;7.244;2022-10-16T01:13:19;3.90;;;2.35;;
27833;SDS011;15200;50.570;7.244;2022-10-16T01:15:55;5.60;;;2.37;;
27833;SDS011;15200;50.570;7.244;2022-10-16T01:18:28;5.08;;;2.17;;
27833;SDS011;15200;50.570;7.244;2022-10-16T01:21:00;5.92;;;2.12;;
27833;SDS011;15200;50.570;7.244;2022-10-16T01:23:36;2.95;;;2.47;;
27833;SDS011;15200;50.570;7.244;2022-10-16T01:26:01;8.38;;;2.55;;
27833;SDS011;15200;50.570;7.244;2022-10-16T01:28:28;7.50;;;2.20;;
27833;SDS011;15200;50.570;7.244;2022-10-16T01:30:57;4.70;;;2.40;;
27833;SDS011;15200;50.570;7.244;2022-10-16T01:33:32;4.87;;;2.50;;
27833;SDS011;15200;50.570;7.244;2022-10-16T01:35:55;3.50;;;2.15;;
27833;SDS011;15200;50.570;7.244;2022-10-16T01:40:57;4.83;;;2.02;;
27833;SDS011;15200;50.570;7.244;2022-10-16T01:43:25;3.40;;;1.87;;
27833;SDS011;15200;50.570;7.244;2022-10-16T01:45:52;2.95;;;2.25;;
27833;SDS011;15200;50.570;7.244;2022-10-16T01:48:20;5.80;;;2.10;;
27833;SDS011;15200;50.570;7.244;2022-10-16T01:51:06;4.42;;;1.95;;
27833;SDS011;15200;50.570;7.244;2022-10-16T01:53:34;5.08;;;2.05;;
27833;SDS011;15200;50.570;7.244;2022-10-16T01:56:02;3.10;;;2.12;;
27833;SDS011;15200;50.570;7.244;2022-10-16T01:58:30;3.20;;;1.87;;
27833;SDS011;15200;50.570;7.244;2022-10-16T02:01:01;3.30;;;1.95;;
27833;SDS011;15200;50.570;7.244;2022-10-16T02:03:29;4.20;;;1.57;;
27833;SDS011;15200;50.570;7.244;2022-10-16T02:05:56;4.05;;;1.85;;
27833;SDS011;15200;50.570;7.244;2022-10-16T02:08:25;2.72;;;1.62;;
27833;SDS011;15200;50.570;7.244;2022-10-16T02:10:54;8.88;;;2.22;;
27833;SDS011;15200;50.570;7.244;2022-10-16T02:13:37;3.40;;;1.85;;
27833;SDS011;15200;50.570;7.244;2022-10-16T02:16:00;5.17;;;2.00;;
27833;SDS011;15200;50.570;7.244;2022-10-16T02:18:27;5.08;;;1.77;;
27833;SDS011;15200;50.570;7.244;2022-10-16T02:21:07;4.45;;;2.40;;
27833;SDS011;15200;50.570;7.244;2022-10-16T02:26:13;2.02;;;1.72;;
27833;SDS011;15200;50.570;7.244;2022-10-16T02:28:45;3.92;;;1.65;;
27833;SDS011;15200;50.570;7.244;2022-10-16T02:31:13;3.37;;;1.80;;
27833;SDS011;15200;50.570;7.244;2022-10-16T02:33:41;2.55;;;1.65;;
27833;SDS011;15200;50.570;7.244;2022-10-16T02:36:10;2.62;;;1.67;;
27833;SDS011;15200;50.570;7.244;2022-10-16T02:38:38;7.20;;;2.02;;
27833;SDS011;15200;50.570;7.244;2022-10-16T02:41:05;2.45;;;1.82;;
27833;SDS011;15200;50.570;7.244;2022-10-16T02:43:33;3.17;;;1.67;;
27833;SDS011;15200;50.570;7.244;2022-10-16T02:46:00;5.35;;;1.77;;
27833;SDS011;15200;50.570;7.244;2022-10-16T02:48:28;4.90;;;1.92;;
27833;SDS011;15200;50.570;7.244;2022-10-16T02:50:55;4.75;;;1.65;;
27833;SDS011;15200;50.570;7.244;2022-10-16T02:53:23;7.62;;;1.82;;
27833;SDS011;15200;50.570;7.244;2022-10-16T02:55:50;3.05;;;1.90;;
27833;SDS011;15200;50.570;7.244;2022-10-16T02:58:18;4.65;;;1.95;;
27833;SDS011;15200;50.570;7.244;2022-10-16T03:00:45;3.98;;;1.85;;
27833;SDS011;15200;50.570;7.244;2022-10-16T03:03:12;2.80;;;1.80;;
27833;SDS011;15200;50.570;7.244;2022-10-16T03:05:40;9.48;;;1.98;;
27833;SDS011;15200;50.570;7.244;2022-10-16T03:08:07;1.70;;;1.50;;
27833;SDS011;15200;50.570;7.244;2022-10-16T03:10:34;4.33;;;1.50;;
27833;SDS011;15200;50.570;7.244;2022-10-16T03:13:01;4.10;;;2.20;;
27833;SDS011;15200;50.570;7.244;2022-10-16T03:15:29;2.30;;;1.52;;
27833;SDS011;15200;50.570;7.244;2022-10-16T03:17:59;1.92;;;1.72;;
27833;SDS011;15200;50.570;7.244;2022-10-16T03:20:26;4.20;;;2.00;;
27833;SDS011;15200;50.570;7.244;2022-10-16T03:22:53;5.05;;;1.60;;
27833;SDS011;15200;50.570;7.244;2022-10-16T03:25:21;5.75;;;1.52;;
27833;SDS011;15200;50.570;7.244;2022-10-16T03:27:48;4.45;;;1.77;;
27833;SDS011;15200;50.570;7.244;2022-10-16T03:30:15;2.35;;;1.50;;
27833;SDS011;15200;50.570;7.244;2022-10-16T03:32:43;2.77;;;1.40;;
27833;SDS011;15200;50.570;7.244;2022-10-16T03:35:11;3.85;;;1.30;;
27833;SDS011;15200;50.570;7.244;2022-10-16T03:37:38;1.90;;;1.27;;
27833;SDS011;15200;50.570;7.244;2022-10-16T03:40:06;2.40;;;1.10;;
27833;SDS011;15200;50.570;7.244;2022-10-16T03:42:33;2.40;;;1.25;;
27833;SDS011;15200;50.570;7.244;2022-10-16T03:45:01;4.20;;;1.52;;
27833;SDS011;15200;50.570;7.244;2022-10-16T03:47:28;2.72;;;1.22;;
27833;SDS011;15200;50.570;7.244;2022-10-16T03:49:56;1.85;;;1.00;;
27833;SDS011;15200;50.570;7.244;2022-10-16T03:52:23;4.22;;;1.32;;
27833;SDS011;15200;50.570;7.244;2022-10-16T03:54:50;2.77;;;1.07;;
27833;SDS011;15200;50.570;7.244;2022-10-16T03:57:18;2.62;;;1.30;;
27833;SDS011;15200;50.570;7.244;2022-10-16T03:59:46;4.17;;;1.32;;
27833;SDS011;15200;50.570;7.244;2022-10-16T04:02:14;1.47;;;0.93;;
27833;SDS011;15200;50.570;7.244;2022-10-16T04:04:41;6.50;;;1.10;;
27833;SDS011;15200;50.570;7.244;2022-10-16T04:07:08;1.30;;;1.20;;
27833;SDS011;15200;50.570;7.244;2022-10-16T04:09:36;4.58;;;1.80;;
27833;SDS011;15200;50.570;7.244;2022-10-16T04:12:03;1.77;;;1.35;;
27833;SDS011;15200;50.570;7.244;2022-10-16T04:14:30;1.62;;;1.27;;
27833;SDS011;15200;50.570;7.244;2022-10-16T04:16:57;3.90;;;1.70;;
27833;SDS011;15200;50.570;7.244;2022-10-16T04:19:25;6.00;;;1.77;;
27833;SDS011;15200;50.570;7.244;2022-10-16T04:21:52;1.60;;;1.07;;
27833;SDS011;15200;50.570;7.244;2022-10-16T04:24:20;1.72;;;1.52;;
27833;SDS011;15200;50.570;7.244;2022-10-16T04:26:47;3.30;;;1.90;;
27833;SDS011;15200;50.570;7.244;2022-10-16T04:29:14;3.75;;;1.30;;
27833;SDS011;15200;50.570;7.244;2022-10-16T04:31:42;15.35;;;1.77;;
27833;SDS011;15200;50.570;7.244;2022-10-16T04:34:09;2.10;;;1.30;;
27833;SDS011;15200;50.570;7.244;2022-10-16T04:36:36;2.25;;;1.50;;
27833;SDS011;15200;50.570;7.244;2022-10-16T04:39:03;3.42;;;1.70;;
27833;SDS011;15200;50.570;7.244;2022-10-16T04:41:31;2.92;;;1.52;;
27833;SDS011;15200;50.570;7.244;2022-10-16T04:43:58;2.92;;;1.37;;
27833;SDS011;15200;50.570;7.244;2022-10-16T04:46:25;2.35;;;1.50;;
27833;SDS011;15200;50.570;7.244;2022-10-16T04:48:53;1.45;;;1.30;;
27833;SDS011;15200;50.570;7.244;2022-10-16T04:51:20;6.15;;;1.72;;
27833;SDS011;15200;50.570;7.244;2022-10-16T04:53:47;1.40;;;1.20;;
27833;SDS011;15200;50.570;7.244;2022-10-16T04:56:14;4.97;;;1.65;;
27833;SDS011;15200;50.570;7.244;2022-10-16T04:58:42;2.83;;;2.08;;
27833;SDS011;15200;50.570;7.244;2022-10-16T05:01:09;2.55;;;1.82;;
27833;SDS011;15200;50.570;7.244;2022-10-16T05:03:36;1.32;;;1.20;;
27833;SDS011;15200;50.570;7.244;2022-10-16T05:06:07;6.12;;;1.77;;
27833;SDS011;15200;50.570;7.244;2022-10-16T05:08:34;1.40;;;1.30;;
27833;SDS011;15200;50.570;7.244;2022-10-16T05:11:01;4.60;;;1.60;;
27833;SDS011;15200;50.570;7.244;2022-10-16T05:13:29;2.98;;;1.40;;
27833;SDS011;15200;50.570;7.244;2022-10-16T05:15:56;5.20;;;1.70;;
27833;SDS011;15200;50.570;7.244;2022-10-16T05:18:23;3.10;;;1.50;;
27833;SDS011;15200;50.570;7.244;2022-10-16T05:20:51;2.17;;;1.98;;
27833;SDS011;15200;50.570;7.244;2022-10-16T05:23:18;1.80;;;1.70;;
27833;SDS011;15200;50.570;7.244;2022-10-16T05:25:51;7.67;;;2.00;;
27833;SDS011;15200;50.570;7.244;2022-10-16T05:28:14;3.40;;;2.50;;
27833;SDS011;15200;50.570;7.244;2022-10-16T05:30:41;1.95;;;1.80;;
27833;SDS011;15200;50.570;7.244;2022-10-16T05:33:09;2.10;;;1.90;;
27833;SDS011;15200;50.570;7.244;2022-10-16T05:35:36;2.45;;;1.87;;
27833;SDS011;15200;50.570;7.244;2022-10-16T05:38:03;2.90;;;2.37;;
27833;SDS011;15200;50.570;7.244;2022-10-16T05:40:31;3.55;;;1.95;;
27833;SDS011;15200;50.570;7.244;2022-10-16T05:42:58;5.67;;;2.05;;
27833;SDS011;15200;50.570;7.244;2022-10-16T05:45:25;4.40;;;1.72;;
27833;SDS011;15200;50.570;7.244;2022-10-16T05:47:52;4.00;;;1.80;;
27833;SDS011;15200;50.570;7.244;2022-10-16T05:50:20;7.53;;;2.12;;
27833;SDS011;15200;50.570;7.244;2022-10-16T05:52:47;2.83;;;1.77;;
27833;SDS011;15200;50.570;7.244;2022-10-16T05:55:14;1.70;;;1.60;;
27833;SDS011;15200;50.570;7.244;2022-10-16T05:57:42;2.22;;;1.75;;
27833;SDS011;15200;50.570;7.244;2022-10-16T06:00:09;2.15;;;1.85;;
27833;SDS011;15200;50.570;7.244;2022-10-16T06:02:37;3.45;;;1.80;;
27833;SDS011;15200;50.570;7.244;2022-10-16T06:05:04;1.60;;;1.50;;
27833;SDS011;15200;50.570;7.244;2022-10-16T06:07:33;1.35;;;1.25;;
27833;SDS011;15200;50.570;7.244;2022-10-16T06:10:00;2.25;;;1.20;;
27833;SDS011;15200;50.570;7.244;2022-10-16T06:12:27;5.67;;;1.30;;
27833;SDS011;15200;50.570;7.244;2022-10-16T06:14:55;5.92;;;1.57;;
27833;SDS011;15200;50.570;7.244;2022-10-16T06:17:22;1.98;;;1.35;;
27833;SDS011;15200;50.570;7.244;2022-10-16T06:19:49;2.40;;;0.90;;
27833;SDS011;15200;50.570;7.244;2022-10-16T06:22:17;1.10;;;1.00;;
27833;SDS011;15200;50.570;7.244;2022-10-16T06:24:44;4.15;;;1.20;;
27833;SDS011;15200;50.570;7.244;2022-10-16T06:27:13;1.52;;;1.37;;
27833;SDS011;15200;50.570;7.244;2022-10-16T06:29:41;1.60;;;1.30;;
27833;SDS011;15200;50.570;7.244;2022-10-16T06:32:09;3.27;;;1.50;;
27833;SDS011;15200;50.570;7.244;2022-10-16T06:34:36;2.80;;;1.37;;
27833;SDS011;15200;50.570;7.244;2022-10-16T06:37:05;4.40;;;1.35;;
27833;SDS011;15200;50.570;7.244;2022-10-16T06:39:33;4.92;;;1.20;;
27833;SDS011;15200;50.570;7.244;2022-10-16T06:42:00;3.95;;;1.10;;
27833;SDS011;15200;50.570;7.244;2022-10-16T06:44:27;2.22;;;1.17;;
27833;SDS011;15200;50.570;7.244;2022-10-16T06:46:54;1.52;;;0.80;;
27833;SDS011;15200;50.570;7.244;2022-10-16T06:49:22;5.97;;;1.00;;
27833;SDS011;15200;50.570;7.244;2022-10-16T06:51:49;2.35;;;1.05;;
27833;SDS011;15200;50.570;7.244;2022-10-16T06:54:17;1.98;;;0.80;;
27833;SDS011;15200;50.570;7.244;2022-10-16T06:56:44;1.15;;;1.00;;
27833;SDS011;15200;50.570;7.244;2022-10-16T06:59:12;2.95;;;1.12;;
27833;SDS011;15200;50.570;7.244;2022-10-16T07:01:39;2.85;;;1.07;;
27833;SDS011;15200;50.570;7.244;2022-10-16T07:04:06;1.25;;;0.88;;
27833;SDS011;15200;50.570;7.244;2022-10-16T07:06:34;1.35;;;0.95;;
27833;SDS011;15200;50.570;7.244;2022-10-16T07:09:05;3.00;;;0.85;;
27833;SDS011;15200;50.570;7.244;2022-10-16T07:11:33;0.90;;;0.80;;
27833;SDS011;15200;50.570;7.244;2022-10-16T07:14:00;2.47;;;0.90;;
27833;SDS011;15200;50.570;7.244;2022-10-16T07:16:28;1.57;;;0.70;;
27833;SDS011;15200;50.570;7.244;2022-10-16T07:18:57;1.62;;;0.90;;
27833;SDS011;15200;50.570;7.244;2022-10-16T07:21:26;1.20;;;0.80;;
27833;SDS011;15200;50.570;7.244;2022-10-16T07:23:55;2.12;;;0.80;;
27833;SDS011;15200;50.570;7.244;2022-10-16T07:26:23;1.17;;;1.00;;
27833;SDS011;15200;50.570;7.244;2022-10-16T07:28:51;2.42;;;1.30;;
27833;SDS011;15200;50.570;7.244;2022-10-16T07:31:19;2.37;;;0.80;;
27833;SDS011;15200;50.570;7.244;2022-10-16T07:33:47;0.70;;;0.70;;
27833;SDS011;15200;50.570;7.244;2022-10-16T07:36:15;1.67;;;1.30;;
27833;SDS011;15200;50.570;7.244;2022-10-16T07:38:44;2.95;;;0.88;;
27833;SDS011;15200;50.570;7.244;2022-10-16T07:41:17;1.70;;;1.02;;
27833;SDS011;15200;50.570;7.244;2022-10-16T07:43:40;2.15;;;0.80;;
27833;SDS011;15200;50.570;7.244;2022-10-16T07:46:07;1.10;;;1.00;;
27833;SDS011;15200;50.570;7.244;2022-10-16T07:48:35;0.70;;;0.70;;
27833;SDS011;15200;50.570;7.244;2022-10-16T07:51:03;2.17;;;0.88;;
27833;SDS011;15200;50.570;7.244;2022-10-16T07:53:31;1.45;;;0.75;;
27833;SDS011;15200;50.570;7.244;2022-10-16T07:55:59;2.70;;;0.70;;
27833;SDS011;15200;50.570;7.244;2022-10-16T07:58:27;1.55;;;0.88;;
27833;SDS011;15200;50.570;7.244;2022-10-16T08:00:55;0.98;;;0.55;;
27833;SDS011;15200;50.570;7.244;2022-10-16T08:03:23;0.93;;;0.55;;
27833;SDS011;15200;50.570;7.244;2022-10-16T08:05:51;0.80;;;0.57;;
27833;SDS011;15200;50.570;7.244;2022-10-16T08:08:18;0.95;;;0.50;;
27833;SDS011;15200;50.570;7.244;2022-10-16T08:10:46;2.15;;;0.68;;
27833;SDS011;15200;50.570;7.244;2022-10-16T08:13:13;1.27;;;0.70;;
27833;SDS011;15200;50.570;7.244;2022-10-16T08:15:41;2.80;;;0.65;;
27833;SDS011;15200;50.570;7.244;2022-10-16T08:18:09;1.30;;;0.55;;
27833;SDS011;15200;50.570;7.244;2022-10-16T08:20:37;1.65;;;0.65;;
27833;SDS011;15200;50.570;7.244;2022-10-16T08:23:04;1.07;;;0.40;;
27833;SDS011;15200;50.570;7.244;2022-10-16T08:25:35;2.15;;;0.47;;
27833;SDS011;15200;50.570;7.244;2022-10-16T08:28:04;0.85;;;0.70;;
27833;SDS011;15200;50.570;7.244;2022-10-16T08:30:31;0.65;;;0.65;;
27833;SDS011;15200;50.570;7.244;2022-10-16T08:32:59;0.75;;;0.40;;
27833;SDS011;15200;50.570;7.244;2022-10-16T08:35:27;2.80;;;0.95;;
27833;SDS011;15200;50.570;7.244;2022-10-16T08:37:54;1.72;;;0.70;;
27833;SDS011;15200;50.570;7.244;2022-10-16T08:40:23;2.17;;;0.70;;
27833;SDS011;15200;50.570;7.244;2022-10-16T08:42:54;2.45;;;0.65;;
27833;SDS011;15200;50.570;7.244;2022-10-16T08:45:34;3.12;;;0.60;;
27833;SDS011;15200;50.570;7.244;2022-10-16T08:48:05;0.70;;;0.53;;
27833;SDS011;15200;50.570;7.244;2022-10-16T08:50:30;0.40;;;0.40;;
27833;SDS011;15200;50.570;7.244;2022-10-16T08:52:57;1.10;;;0.40;;
27833;SDS011;15200;50.570;7.244;2022-10-16T08:58:10;0.90;;;0.50;;
27833;SDS011;15200;50.570;7.244;2022-10-16T09:00:38;1.40;;;0.40;;
27833;SDS011;15200;50.570;7.244;2022-10-16T09:03:10;0.53;;;0.45;;
27833;SDS011;15200;50.570;7.244;2022-10-16T09:08:16;3.12;;;0.75;;
27833;SDS011;15200;50.570;7.244;2022-10-16T09:11:44;1.20;;;0.47;;
27833;SDS011;15200;50.570;7.244;2022-10-16T09:13:29;0.80;;;0.57;;
27833;SDS011;15200;50.570;7.244;2022-10-16T09:18:52;1.02;;;0.40;;
27833;SDS011;15200;50.570;7.244;2022-10-16T09:21:19;0.72;;;0.53;;
27833;SDS011;15200;50.570;7.244;2022-10-16T09:23:47;1.70;;;0.55;;
27833;SDS011;15200;50.570;7.244;2022-10-16T09:26:14;1.20;;;0.50;;
27833;SDS011;15200;50.570;7.244;2022-10-16T09:28:44;0.82;;;0.40;;
27833;SDS011;15200;50.570;7.244;2022-10-16T09:31:17;2.42;;;0.60;;
27833;SDS011;15200;50.570;7.244;2022-10-16T09:33:40;1.05;;;0.47;;
27833;SDS011;15200;50.570;7.244;2022-10-16T09:36:08;5.58;;;0.80;;
27833;SDS011;15200;50.570;7.244;2022-10-16T09:38:36;0.47;;;0.30;;
27833;SDS011;15200;50.570;7.244;2022-10-16T09:41:12;0.40;;;0.35;;
27833;SDS011;15200;50.570;7.244;2022-10-16T09:43:37;0.90;;;0.55;;
27833;SDS011;15200;50.570;7.244;2022-10-16T09:46:04;0.42;;;0.30;;
27833;SDS011;15200;50.570;7.244;2022-10-16T09:48:43;1.60;;;0.68;;
27833;SDS011;15200;50.570;7.244;2022-10-16T09:51:02;0.60;;;0.40;;
27833;SDS011;15200;50.570;7.244;2022-10-16T09:53:43;2.08;;;0.30;;
27833;SDS011;15200;50.570;7.244;2022-10-16T09:56:12;4.08;;;0.30;;
27833;SDS011;15200;50.570;7.244;2022-10-16T09:58:43;0.60;;;0.33;;
27833;SDS011;15200;50.570;7.244;2022-10-16T10:01:12;0.37;;;0.30;;
27833;SDS011;15200;50.570;7.244;2022-10-16T10:03:40;0.47;;;0.28;;
27833;SDS011;15200;50.570;7.244;2022-10-16T10:08:53;0.75;;;0.30;;
27833;SDS011;15200;50.570;7.244;2022-10-16T10:11:37;2.33;;;0.40;;
27833;SDS011;15200;50.570;7.244;2022-10-16T10:14:18;0.30;;;0.30;;
27833;SDS011;15200;50.570;7.244;2022-10-16T10:16:42;0.68;;;0.40;;
27833;SDS011;15200;50.570;7.244;2022-10-16T10:19:28;0.25;;;0.20;;
27833;SDS011;15200;50.570;7.244;2022-10-16T10:21:41;1.25;;;0.37;;
27833;SDS011;15200;50.570;7.244;2022-10-16T10:24:13;0.20;;;0.20;;
27833;SDS011;15200;50.570;7.244;2022-10-16T10:26:37;3.15;;;0.45;;
27833;SDS011;15200;50.570;7.244;2022-10-16T10:31:48;0.78;;;0.30;;
27833;SDS011;15200;50.570;7.244;2022-10-16T10:36:44;1.77;;;0.30;;
27833;SDS011;15200;50.570;7.244;2022-10-16T10:41:51;0.45;;;0.30;;
27833;SDS011;15200;50.570;7.244;2022-10-16T10:46:51;1.05;;;0.35;;
27833;SDS011;15200;50.570;7.244;2022-10-16T10:54:32;0.72;;;0.40;;
27833;SDS011;15200;50.570;7.244;2022-10-16T10:57:00;1.07;;;0.30;;
27833;SDS011;15200;50.570;7.244;2022-10-16T10:59:32;0.70;;;0.20;;
27833;SDS011;15200;50.570;7.244;2022-10-16T11:04:34;2.70;;;0.40;;
27833;SDS011;15200;50.570;7.244;2022-10-16T11:06:59;0.40;;;0.35;;
27833;SDS011;15200;50.570;7.244;2022-10-16T11:09:28;1.50;;;0.40;;
27833;SDS011;15200;50.570;7.244;2022-10-16T11:11:59;0.30;;;0.30;;
27833;SDS011;15200;50.570;7.244;2022-10-16T11:16:59;1.95;;;0.33;;
27833;SDS011;15200;50.570;7.244;2022-10-16T11:22:16;0.40;;;0.30;;
27833;SDS011;15200;50.570;7.244;2022-10-16T11:24:44;0.42;;;0.40;;
27833;SDS011;15200;50.570;7.244;2022-10-16T11:27:19;0.35;;;0.30;;
27833;SDS011;15200;50.570;7.244;2022-10-16T11:29:57;1.42;;;0.30;;
27833;SDS011;15200;50.570;7.244;2022-10-16T11:32:25;1.10;;;0.40;;
27833;SDS011;15200;50.570;7.244;2022-10-16T11:34:53;0.82;;;0.45;;
27833;SDS011;15200;50.570;7.244;2022-10-16T11:37:25;0.62;;;0.40;;
27833;SDS011;15200;50.570;7.244;2022-10-16T11:39:50;0.62;;;0.47;;
27833;SDS011;15200;50.570;7.244;2022-10-16T11:42:27;0.47;;;0.20;;
27833;SDS011;15200;50.570;7.244;2022-10-16T11:47:48;1.07;;;0.30;;
27833;SDS011;15200;50.570;7.244;2022-10-16T11:55:21;1.40;;;0.23;;
27833;SDS011;15200;50.570;7.244;2022-10-16T11:57:57;1.25;;;0.40;;
27833;SDS011;15200;50.570;7.244;2022-10-16T12:00:25;1.80;;;0.37;;
27833;SDS011;15200;50.570;7.244;2022-10-16T12:05:28;1.25;;;0.42;;
27833;SDS011;15200;50.570;7.244;2022-10-16T12:08:09;2.25;;;0.30;;
27833;SDS011;15200;50.570;7.244;2022-10-16T12:10:38;3.95;;;0.50;;
27833;SDS011;15200;50.570;7.244;2022-10-16T12:15:51;1.25;;;0.35;;
27833;SDS011;15200;50.570;7.244;2022-10-16T12:18:23;0.50;;;0.35;;
27833;SDS011;15200;50.570;7.244;2022-10-16T12:20:53;2.00;;;0.25;;
27833;SDS011;15200;50.570;7.244;2022-10-16T12:23:19;1.15;;;0.30;;
27833;SDS011;15200;50.570;7.244;2022-10-16T12:25:53;0.20;;;0.20;;
27833;SDS011;15200;50.570;7.244;2022-10-16T12:28:26;1.75;;;0.45;;
27833;SDS011;15200;50.570;7.244;2022-10-16T12:30:57;0.20;;;0.20;;
27833;SDS011;15200;50.570;7.244;2022-10-16T12:33:29;1.87;;;0.47;;
27833;SDS011;15200;50.570;7.244;2022-10-16T12:35:54;0.60;;;0.23;;
27833;SDS011;15200;50.570;7.244;2022-10-16T12:40:55;1.35;;;0.45;;
27833;SDS011;15200;50.570;7.244;2022-10-16T12:43:27;0.85;;;0.60;;
27833;SDS011;15200;50.570;7.244;2022-10-16T12:46:01;0.82;;;0.37;;
27833;SDS011;15200;50.570;7.244;2022-10-16T12:48:29;0.30;;;0.30;;
27833;SDS011;15200;50.570;7.244;2022-10-16T12:50:57;2.30;;;0.40;;
27833;SDS011;15200;50.570;7.244;2022-10-16T12:53:25;2.42;;;0.40;;
27833;SDS011;15200;50.570;7.244;2022-10-16T12:58:37;1.77;;;0.33;;
27833;SDS011;15200;50.570;7.244;2022-10-16T13:01:07;1.90;;;0.42;;
27833;SDS011;15200;50.570;7.244;2022-10-16T13:06:13;0.93;;;0.40;;
27833;SDS011;15200;50.570;7.244;2022-10-16T13:19:02;0.85;;;0.40;;
27833;SDS011;15200;50.570;7.244;2022-10-16T13:21:47;0.85;;;0.33;;
27833;SDS011;15200;50.570;7.244;2022-10-16T13:24:16;0.33;;;0.33;;
27833;SDS011;15200;50.570;7.244;2022-10-16T13:26:44;2.10;;;0.47;;
27833;SDS011;15200;50.570;7.244;2022-10-16T13:29:10;1.40;;;0.40;;
27833;SDS011;15200;50.570;7.244;2022-10-16T13:31:37;0.40;;;0.23;;
27833;SDS011;15200;50.570;7.244;2022-10-16T13:34:05;0.35;;;0.30;;
27833;SDS011;15200;50.570;7.244;2022-10-16T13:36:35;0.68;;;0.40;;
27833;SDS011;15200;50.570;7.244;2022-10-16T13:39:12;0.42;;;0.30;;
27833;SDS011;15200;50.570;7.244;2022-10-16T13:41:40;0.50;;;0.30;;
27833;SDS011;15200;50.570;7.244;2022-10-16T13:44:30;3.98;;;0.50;;
27833;SDS011;15200;50.570;7.244;2022-10-16T13:46:36;1.95;;;0.68;;
27833;SDS011;15200;50.570;7.244;2022-10-16T13:49:04;0.62;;;0.45;;
27833;SDS011;15200;50.570;7.244;2022-10-16T13:51:32;0.88;;;0.28;;
27833;SDS011;15200;50.570;7.244;2022-10-16T13:53:59;1.57;;;0.30;;
27833;SDS011;15200;50.570;7.244;2022-10-16T13:56:27;2.30;;;0.50;;
27833;SDS011;15200;50.570;7.244;2022-10-16T13:59:22;3.35;;;0.47;;
27833;SDS011;15200;50.570;7.244;2022-10-16T14:01:42;1.75;;;0.47;;
27833;SDS011;15200;50.570;7.244;2022-10-16T14:04:11;1.47;;;0.40;;
27833;SDS011;15200;50.570;7.244;2022-10-16T14:06:43;0.88;;;0.45;;
27833;SDS011;15200;50.570;7.244;2022-10-16T14:09:16;0.93;;;0.40;;
27833;SDS011;15200;50.570;7.244;2022-10-16T14:11:46;0.90;;;0.28;;
27833;SDS011;15200;50.570;7.244;2022-10-16T14:14:14;0.30;;;0.30;;
27833;SDS011;15200;50.570;7.244;2022-10-16T14:16:42;4.22;;;0.50;;
27833;SDS011;15200;50.570;7.244;2022-10-16T14:19:15;0.75;;;0.30;;
27833;SDS011;15200;50.570;7.244;2022-10-16T14:21:41;2.70;;;0.55;;
27833;SDS011;15200;50.570;7.244;2022-10-16T14:24:12;1.45;;;0.33;;
27833;SDS011;15200;50.570;7.244;2022-10-16T14:26:41;0.68;;;0.30;;
27833;SDS011;15200;50.570;7.244;2022-10-16T14:29:14;1.37;;;0.30;;
27833;SDS011;15200;50.570;7.244;2022-10-16T14:31:38;1.00;;;0.23;;
27833;SDS011;15200;50.570;7.244;2022-10-16T14:34:29;0.35;;;0.30;;
27833;SDS011;15200;50.570;7.244;2022-10-16T14:36:34;2.55;;;0.47;;
27833;SDS011;15200;50.570;7.244;2022-10-16T14:41:31;0.50;;;0.42;;
27833;SDS011;15200;50.570;7.244;2022-10-16T14:44:05;1.45;;;0.40;;
27833;SDS011;15200;50.570;7.244;2022-10-16T14:49:12;1.62;;;0.30;;
27833;SDS011;15200;50.570;7.244;2022-10-16T14:51:32;2.92;;;0.40;;
27833;SDS011;15200;50.570;7.244;2022-10-16T14:54:00;0.30;;;0.30;;
27833;SDS011;15200;50.570;7.244;2022-10-16T14:56:32;0.50;;;0.30;;
27833;SDS011;15200;50.570;7.244;2022-10-16T14:58:59;0.40;;;0.40;;
27833;SDS011;15200;50.570;7.244;2022-10-16T15:01:27;1.77;;;0.42;;
27833;SDS011;15200;50.570;7.244;2022-10-16T15:03:54;1.27;;;0.45;;
27833;SDS011;15200;50.570;7.244;2022-10-16T15:06:22;2.67;;;0.35;;
27833;SDS011;15200;50.570;7.244;2022-10-16T15:08:49;0.30;;;0.30;;
27833;SDS011;15200;50.570;7.244;2022-10-16T15:11:17;0.62;;;0.40;;
27833;SDS011;15200;50.570;7.244;2022-10-16T15:13:45;2.10;;;0.30;;
27833;SDS011;15200;50.570;7.244;2022-10-16T15:16:13;1.37;;;0.50;;
27833;SDS011;15200;50.570;7.244;2022-10-16T15:18:41;3.80;;;0.30;;
27833;SDS011;15200;50.570;7.244;2022-10-16T15:21:25;0.40;;;0.23;;
27833;SDS011;15200;50.570;7.244;2022-10-16T15:23:53;0.93;;;0.30;;
27833;SDS011;15200;50.570;7.244;2022-10-16T15:26:20;1.02;;;0.50;;
27833;SDS011;15200;50.570;7.244;2022-10-16T15:28:48;0.98;;;0.30;;
27833;SDS011;15200;50.570;7.244;2022-10-16T15:31:15;0.30;;;0.30;;
27833;SDS011;15200;50.570;7.244;2022-10-16T15:33:44;0.70;;;0.40;;
27833;SDS011;15200;50.570;7.244;2022-10-16T15:36:13;1.35;;;0.62;;
27833;SDS011;15200;50.570;7.244;2022-10-16T15:38:41;1.92;;;0.57;;
27833;SDS011;15200;50.570;7.244;2022-10-16T15:41:08;0.75;;;0.50;;
27833;SDS011;15200;50.570;7.244;2022-10-16T15:43:36;2.62;;;0.65;;
27833;SDS011;15200;50.570;7.244;2022-10-16T15:46:06;0.70;;;0.70;;
27833;SDS011;15200;50.570;7.244;2022-10-16T15:48:32;0.80;;;0.47;;
27833;SDS011;15200;50.570;7.244;2022-10-16T15:51:00;0.50;;;0.40;;
27833;SDS011;15200;50.570;7.244;2022-10-16T15:53:27;0.75;;;0.60;;
27833;SDS011;15200;50.570;7.244;2022-10-16T15:55:55;0.57;;;0.53;;
27833;SDS011;15200;50.570;7.244;2022-10-16T15:58:22;1.00;;;0.55;;
27833;SDS011;15200;50.570;7.244;2022-10-16T16:00:56;0.70;;;0.53;;
27833;SDS011;15200;50.570;7.244;2022-10-16T16:03:24;0.47;;;0.47;;
27833;SDS011;15200;50.570;7.244;2022-10-16T16:05:51;0.30;;;0.30;;
27833;SDS011;15200;50.570;7.244;2022-10-16T16:08:19;2.15;;;0.50;;
27833;SDS011;15200;50.570;7.244;2022-10-16T16:10:56;1.27;;;0.47;;
27833;SDS011;15200;50.570;7.244;2022-10-16T16:13:15;0.60;;;0.60;;